Terminal Aerodrome Forecast
Issued by NWS

Home | Current Version | Previous Version | Text Only | Print | Product List | Glossary On
Versions: 1 2 3 4 5 6 7 8 9 10 11 12
000
FTUS43 KAPX 182325
TAFMBL
TAF
KMBL 182325Z 1900/1924 19009G18KT P6SM FEW250 WS020/20045KT
     FM190400 22012G20KT P6SM FEW200 WS020/23045KT
     FM190600 24012G23KT P6SM SCT150
     FM190900 28008KT P6SM FEW250
     FM191600 28010G16KT P6SM SKC=

USA.gov is the U.S. government's official web portal to all federal, state and local government web resources and services.